createdAt,value
2023-05-17T00:00:57.335Z,101.63
2023-05-17T00:03:23.983Z,103.70
2023-05-17T00:05:50.607Z,165.35
2023-05-17T00:08:17.229Z,88.35
2023-05-17T00:10:43.881Z,143.15
2023-05-17T00:13:10.798Z,167.23
2023-05-17T00:15:37.494Z,102.10
2023-05-17T00:18:04.635Z,214.90
2023-05-17T00:20:32.504Z,108.25
2023-05-17T00:23:00.826Z,195.65
2023-05-17T00:25:27.837Z,102.15
2023-05-17T00:27:55.093Z,107.03
2023-05-17T00:30:21.706Z,139.30
2023-05-17T00:32:48.551Z,152.48
2023-05-17T00:35:15.504Z,144.13
2023-05-17T00:37:47.657Z,118.80
2023-05-17T00:40:15.824Z,115.35
2023-05-17T00:42:42.773Z,199.23
2023-05-17T00:45:10.061Z,110.57
2023-05-17T00:47:36.980Z,114.80
2023-05-17T00:50:04.921Z,99.07
2023-05-17T00:52:31.828Z,252.10
2023-05-17T00:54:58.869Z,94.43
2023-05-17T00:57:25.759Z,118.35
2023-05-17T00:59:52.812Z,85.80
2023-05-17T01:02:19.532Z,107.55
2023-05-17T01:04:49.893Z,186.73
2023-05-17T01:07:17.887Z,97.93
2023-05-17T01:09:46.849Z,66.88
2023-05-17T01:12:25.130Z,126.20
2023-05-17T01:15:06.878Z,100.80
2023-05-17T01:17:50.458Z,101.18
2023-05-17T01:20:26.894Z,301.00
2023-05-17T01:23:26.598Z,166.50
2023-05-17T01:26:11.711Z,96.68
2023-05-17T01:28:39.004Z,97.82
2023-05-17T01:31:06.550Z,112.75
2023-05-17T01:33:34.119Z,112.00
2023-05-17T01:36:00.961Z,110.35
2023-05-17T01:38:27.722Z,106.57
2023-05-17T01:41:30.038Z,140.32
2023-05-17T01:44:06.878Z,108.72
2023-05-17T01:46:39.490Z,150.50
2023-05-17T01:49:11.453Z,106.50
2023-05-17T01:52:08.611Z,73.43
2023-05-17T01:54:41.357Z,88.90
2023-05-17T01:57:09.888Z,112.30
2023-05-17T01:59:38.579Z,99.20
2023-05-17T02:02:08.805Z,127.90
2023-05-17T02:04:36.373Z,97.90
2023-05-17T02:07:03.568Z,87.78
2023-05-17T02:09:30.918Z,76.78
2023-05-17T02:11:57.675Z,94.85
2023-05-17T02:14:24.305Z,137.27
2023-05-17T02:16:51.070Z,98.53
2023-05-17T02:19:18.103Z,108.55
2023-05-17T02:21:45.504Z,60.72
2023-05-17T02:24:12.210Z,92.70
2023-05-17T02:26:42.720Z,97.60
2023-05-17T02:29:11.093Z,102.70
2023-05-17T02:31:37.797Z,71.25
2023-05-17T02:34:04.451Z,152.32
2023-05-17T02:36:31.237Z,89.05
2023-05-17T02:38:59.027Z,79.30
2023-05-17T02:41:25.678Z,79.97
2023-05-17T02:43:52.312Z,86.40
2023-05-17T02:46:18.879Z,85.05
2023-05-17T02:48:45.494Z,75.57
2023-05-17T02:51:12.218Z,90.93
2023-05-17T02:53:41.320Z,83.15
2023-05-17T02:56:08.520Z,108.93
2023-05-17T02:58:35.489Z,92.43
2023-05-17T03:01:02.230Z,106.43
2023-05-17T03:03:30.286Z,83.47
2023-05-17T03:06:02.694Z,93.75
2023-05-17T03:08:29.700Z,83.25
2023-05-17T03:10:57.357Z,106.43
2023-05-17T03:13:24.005Z,87.72
2023-05-17T03:15:50.598Z,114.20
2023-05-17T03:18:17.977Z,84.38
2023-05-17T03:20:44.753Z,96.82
2023-05-17T03:23:11.317Z,141.90
2023-05-17T03:25:47.552Z,102.78
2023-05-17T03:28:14.192Z,80.13
2023-05-17T03:30:41.189Z,91.10
2023-05-17T03:33:29.116Z,84.05
2023-05-17T03:36:50.049Z,82.00
2023-05-17T03:40:11.103Z,144.27
2023-05-17T03:43:32.061Z,86.45
2023-05-17T03:46:54.076Z,89.90
2023-05-17T03:50:15.099Z,142.32
2023-05-17T03:53:36.165Z,18.38
2023-05-17T03:56:57.079Z,21.73
2023-05-17T04:00:18.065Z,28.65
2023-05-17T04:03:44.108Z,20.40
2023-05-17T04:07:07.082Z,45.20
2023-05-17T04:10:28.085Z,34.30
2023-05-17T04:13:51.102Z,17.77
2023-05-17T04:17:12.097Z,19.50
2023-05-17T04:20:34.087Z,53.03
2023-05-17T04:23:55.114Z,19.35
2023-05-17T04:27:16.104Z,23.92
2023-05-17T04:30:31.156Z,52.65
2023-05-17T04:33:52.116Z,44.40
2023-05-17T04:37:13.163Z,20.98
2023-05-17T04:40:37.117Z,35.13
2023-05-17T04:43:51.099Z,22.42
2023-05-17T04:47:18.080Z,22.58
2023-05-17T04:50:39.164Z,48.30
2023-05-17T04:54:00.123Z,22.98
2023-05-17T04:57:22.105Z,22.35
2023-05-17T05:00:46.122Z,33.45
2023-05-17T05:04:07.382Z,21.58
2023-05-17T05:07:23.089Z,21.13
2023-05-17T05:10:46.150Z,29.33
2023-05-17T05:14:09.110Z,20.52
2023-05-17T05:17:30.277Z,20.25
2023-05-17T05:20:51.088Z,39.83
2023-05-17T05:24:12.147Z,19.17
2023-05-17T05:27:33.124Z,20.15
2023-05-17T05:30:54.114Z,18.50
2023-05-17T05:34:21.117Z,22.70
2023-05-17T05:37:42.173Z,21.50
2023-05-17T05:41:03.161Z,17.88
2023-05-17T05:47:39.168Z,24.50
2023-05-17T05:51:00.319Z,18.45
2023-05-17T05:54:21.103Z,26.35
2023-05-17T05:57:42.169Z,21.88
2023-05-17T06:01:06.146Z,19.05
2023-05-17T06:04:36.818Z,43.63
2023-05-17T06:07:58.154Z,17.52
2023-05-17T06:11:19.164Z,45.75
2023-05-17T06:14:40.164Z,13.60
2023-05-17T06:18:01.171Z,44.05
2023-05-17T06:21:23.239Z,17.48
2023-05-17T06:24:44.157Z,18.35
2023-05-17T06:28:05.139Z,22.37
2023-05-17T06:31:20.386Z,21.93
2023-05-17T06:34:42.194Z,14.93
2023-05-17T06:38:03.149Z,13.27
2023-05-17T06:41:24.146Z,43.83
2023-05-17T06:44:45.160Z,18.23
2023-05-17T06:48:06.329Z,17.10
2023-05-17T06:51:27.121Z,50.20
2023-05-17T06:54:41.183Z,17.67
2023-05-17T06:58:02.161Z,23.50
2023-05-17T07:01:23.152Z,73.93
2023-05-17T07:04:44.205Z,33.83
2023-05-17T07:08:05.199Z,15.23
2023-05-17T07:11:26.404Z,19.93
2023-05-17T07:14:47.135Z,27.83
2023-05-17T07:18:08.359Z,17.65
2023-05-17T07:21:30.204Z,34.45
2023-05-17T07:24:51.177Z,30.48
2023-05-17T07:28:12.183Z,19.02
2023-05-17T07:31:33.333Z,47.77
2023-05-17T07:34:55.492Z,16.33
2023-05-17T07:38:17.177Z,18.63
2023-05-17T07:41:38.160Z,49.15
2023-05-17T07:44:59.168Z,20.90
2023-05-17T07:48:20.579Z,16.43
2023-05-17T07:51:41.221Z,71.77
2023-05-17T07:55:02.491Z,14.25
2023-05-17T07:58:26.232Z,17.30
2023-05-17T08:01:47.189Z,30.27
2023-05-17T08:05:08.213Z,13.10
2023-05-17T08:08:29.209Z,16.58
2023-05-17T08:11:52.211Z,23.20
2023-05-17T08:15:13.496Z,13.23
2023-05-17T08:18:34.354Z,43.77
2023-05-17T08:21:56.263Z,29.07
2023-05-17T08:28:45.185Z,40.83
2023-05-17T08:32:07.230Z,13.45
2023-05-17T08:35:29.110Z,30.17
2023-05-17T08:38:51.222Z,22.60
2023-05-17T08:42:12.488Z,14.00
2023-05-17T08:45:33.210Z,36.90
2023-05-17T08:48:57.268Z,42.88
2023-05-17T08:52:20.222Z,19.75
2023-05-17T08:55:43.723Z,40.60
2023-05-17T08:59:07.210Z,43.67
2023-05-17T09:02:28.256Z,13.10
2023-05-17T09:05:50.248Z,13.80
2023-05-17T09:09:11.223Z,44.85
2023-05-17T09:12:32.205Z,13.47
2023-05-17T09:15:57.239Z,24.20
2023-05-17T09:19:19.299Z,24.08
2023-05-17T09:22:40.240Z,13.77
2023-05-17T09:26:02.224Z,15.38
2023-05-17T09:29:24.234Z,30.65
2023-05-17T09:32:39.249Z,15.13
2023-05-17T09:36:00.245Z,14.82
2023-05-17T09:39:21.275Z,27.43
2023-05-17T09:42:46.226Z,14.23
2023-05-17T09:46:11.256Z,17.05
2023-05-17T09:49:32.256Z,20.98
2023-05-17T09:52:53.313Z,11.50
2023-05-17T09:56:15.255Z,17.77
2023-05-17T09:59:36.217Z,15.38
2023-05-17T10:02:59.423Z,11.67
2023-05-17T10:06:38.972Z,20.67
2023-05-17T10:09:59.288Z,10.60
2023-05-17T10:13:22.272Z,22.15
2023-05-17T10:16:43.277Z,26.85
2023-05-17T10:20:04.509Z,14.33
2023-05-17T10:23:25.298Z,24.07
2023-05-17T10:26:46.231Z,61.73
2023-05-17T10:30:07.289Z,19.20
2023-05-17T10:33:22.401Z,26.80
2023-05-17T10:36:43.351Z,33.13
2023-05-17T10:40:04.281Z,12.93
2023-05-17T10:43:25.228Z,20.87
2023-05-17T10:46:46.256Z,27.07
2023-05-17T10:50:07.289Z,16.10
2023-05-17T10:53:28.274Z,32.90
2023-05-17T10:56:53.270Z,51.87
2023-05-17T11:00:19.329Z,32.35
2023-05-17T11:03:41.255Z,51.80
2023-05-17T11:07:04.831Z,22.15
2023-05-17T11:10:27.575Z,49.53
2023-05-17T11:13:48.279Z,57.97
2023-05-17T11:17:10.368Z,33.10
2023-05-17T11:20:40.475Z,59.03
2023-05-17T11:24:03.363Z,251.43
2023-05-17T11:27:25.326Z,422.08
2023-05-17T11:30:46.277Z,647.63
2023-05-17T11:34:07.343Z,553.03
2023-05-17T11:37:39.284Z,437.73
2023-05-17T11:44:21.338Z,331.30
2023-05-17T11:47:42.358Z,408.13
2023-05-17T11:51:04.390Z,403.83
2023-05-17T11:57:46.285Z,343.02
2023-05-17T12:01:08.334Z,428.53
2023-05-17T12:04:39.465Z,436.17
2023-05-17T12:07:40.190Z,419.38
2023-05-17T12:10:07.434Z,438.33
2023-05-17T12:12:34.043Z,469.17
2023-05-17T12:15:01.527Z,581.45
2023-05-17T12:17:35.715Z,402.30
2023-05-17T12:20:10.009Z,382.20
2023-05-17T12:22:54.802Z,311.85
2023-05-17T12:25:25.183Z,531.70
2023-05-17T12:27:52.241Z,385.80
2023-05-17T12:30:19.216Z,510.67
2023-05-17T12:32:46.650Z,407.65
2023-05-17T12:35:13.666Z,577.63
2023-05-17T12:37:40.336Z,519.08
2023-05-17T12:40:08.146Z,649.67
2023-05-17T12:42:34.752Z,544.63
2023-05-17T12:45:01.641Z,615.55
2023-05-17T12:47:31.864Z,515.80
2023-05-17T12:50:00.390Z,486.08
2023-05-17T12:52:33.618Z,450.95
2023-05-17T12:55:04.395Z,577.95
2023-05-17T12:57:31.163Z,532.33
2023-05-17T12:59:57.731Z,510.60
2023-05-17T13:02:24.692Z,526.40
2023-05-17T13:04:51.787Z,533.50
2023-05-17T13:07:23.800Z,466.55
2023-05-17T13:09:50.721Z,416.05
2023-05-17T13:12:24.265Z,432.75
2023-05-17T13:14:52.374Z,494.05
2023-05-17T13:17:23.239Z,452.00
2023-05-17T13:19:50.201Z,558.38
2023-05-17T13:22:20.348Z,514.67
2023-05-17T13:24:47.012Z,620.60
2023-05-17T13:27:13.786Z,494.73
2023-05-17T13:29:41.983Z,485.83
2023-05-17T13:32:12.068Z,581.25
2023-05-17T13:34:40.088Z,554.05
2023-05-17T13:37:11.617Z,603.78
2023-05-17T13:39:41.325Z,580.95
2023-05-17T13:42:08.434Z,577.90
2023-05-17T13:44:35.893Z,476.90
2023-05-17T13:47:03.342Z,533.17
2023-05-17T13:49:30.040Z,457.88
2023-05-17T13:51:57.640Z,504.52
2023-05-17T13:54:27.598Z,614.85
2023-05-17T13:56:57.374Z,562.47
2023-05-17T13:59:24.018Z,537.85
2023-05-17T14:01:50.643Z,561.10
2023-05-17T14:04:17.482Z,547.92
2023-05-17T14:06:45.356Z,516.72
2023-05-17T14:09:13.408Z,518.90
2023-05-17T14:11:40.157Z,545.50
2023-05-17T14:14:06.896Z,597.92
2023-05-17T14:16:33.544Z,552.75
2023-05-17T14:19:04.307Z,608.17
2023-05-17T14:21:32.701Z,613.30
2023-05-17T14:23:59.356Z,618.75
2023-05-17T14:26:26.594Z,538.25
2023-05-17T14:28:53.625Z,519.63
2023-05-17T14:31:20.362Z,441.63
2023-05-17T14:33:46.995Z,577.05
2023-05-17T14:36:14.321Z,541.75
2023-05-17T14:38:41.057Z,573.63
2023-05-17T14:41:07.982Z,527.90
2023-05-17T14:43:34.635Z,524.63
2023-05-17T14:46:01.489Z,584.33
2023-05-17T14:48:28.890Z,534.75
2023-05-17T14:50:55.649Z,462.35
2023-05-17T14:53:23.315Z,447.92
2023-05-17T14:55:49.956Z,429.95
2023-05-17T14:58:16.573Z,402.23
2023-05-17T15:00:48.554Z,361.67
2023-05-17T15:03:21.867Z,340.77
2023-05-17T15:05:55.885Z,358.98
2023-05-17T15:08:22.812Z,367.92
2023-05-17T15:10:52.555Z,326.67
2023-05-17T15:13:19.123Z,362.40
2023-05-17T15:15:46.793Z,340.02
2023-05-17T15:18:17.123Z,363.48
2023-05-17T15:20:43.901Z,397.67
2023-05-17T15:23:10.761Z,294.20
2023-05-17T15:25:37.541Z,324.50
2023-05-17T15:28:04.350Z,267.23
2023-05-17T15:30:31.025Z,256.48
2023-05-17T15:32:58.446Z,235.00
2023-05-17T15:35:26.424Z,334.15
2023-05-17T15:37:53.637Z,257.48
2023-05-17T15:40:24.560Z,323.83
2023-05-17T15:42:52.488Z,240.10
2023-05-17T15:45:21.358Z,336.08
2023-05-17T15:47:49.281Z,237.77
2023-05-17T15:50:16.259Z,271.40
2023-05-17T15:52:43.130Z,236.80
2023-05-17T15:55:10.538Z,307.58
2023-05-17T15:57:41.092Z,264.88
2023-05-17T16:00:08.577Z,198.07
2023-05-17T16:02:35.225Z,205.35
2023-05-17T16:05:04.113Z,234.50
2023-05-17T16:07:31.232Z,229.90
2023-05-17T16:09:57.920Z,187.82
2023-05-17T16:12:24.597Z,214.55
2023-05-17T16:14:52.531Z,274.25
2023-05-17T16:17:19.688Z,204.50
2023-05-17T16:19:49.508Z,301.60
2023-05-17T16:22:16.394Z,190.27
2023-05-17T16:24:43.392Z,253.13
2023-05-17T16:27:10.154Z,185.60
2023-05-17T16:29:39.924Z,204.45
2023-05-17T16:32:07.700Z,197.55
2023-05-17T16:34:34.351Z,216.38
2023-05-17T16:37:00.936Z,218.73
2023-05-17T16:39:28.680Z,194.85
2023-05-17T16:41:55.543Z,296.48
2023-05-17T16:44:22.156Z,193.00
2023-05-17T16:46:48.876Z,218.30
2023-05-17T16:49:15.549Z,189.65
2023-05-17T16:51:42.307Z,256.98
2023-05-17T16:54:09.239Z,256.45
2023-05-17T16:56:35.749Z,181.40
2023-05-17T16:59:02.789Z,228.65
2023-05-17T17:01:29.448Z,180.48
2023-05-17T17:03:56.677Z,184.50
2023-05-17T17:06:23.437Z,188.27
2023-05-17T17:08:50.029Z,182.07
2023-05-17T17:11:18.716Z,198.50
2023-05-17T17:13:45.304Z,169.55
2023-05-17T17:16:12.065Z,203.43
2023-05-17T17:18:38.699Z,197.55
2023-05-17T17:21:07.841Z,223.25
2023-05-17T17:23:36.574Z,191.63
2023-05-17T17:26:03.177Z,211.32
2023-05-17T17:28:29.958Z,227.90
2023-05-17T17:30:56.808Z,205.40
2023-05-17T17:33:23.594Z,254.23
2023-05-17T17:35:50.831Z,228.25
2023-05-17T17:38:17.437Z,205.98
2023-05-17T17:40:44.216Z,208.02
2023-05-17T17:43:10.938Z,183.85
2023-05-17T17:45:37.846Z,285.00
2023-05-17T17:48:04.719Z,187.45
2023-05-17T17:50:31.823Z,189.60
2023-05-17T17:52:59.148Z,289.80
2023-05-17T17:55:26.255Z,274.02
2023-05-17T17:57:52.853Z,219.88
2023-05-17T18:00:20.089Z,238.23
2023-05-17T18:02:46.793Z,197.98
2023-05-17T18:05:13.447Z,253.88
2023-05-17T18:07:40.043Z,185.88
2023-05-17T18:10:07.441Z,199.07
2023-05-17T18:12:34.154Z,205.63
2023-05-17T18:15:01.391Z,214.07
2023-05-17T18:17:28.618Z,206.73
2023-05-17T18:19:55.881Z,202.93
2023-05-17T18:22:22.539Z,195.82
2023-05-17T18:24:49.548Z,288.73
2023-05-17T18:27:16.842Z,185.48
2023-05-17T18:29:43.631Z,279.30
2023-05-17T18:32:10.429Z,185.13
2023-05-17T18:34:37.502Z,248.10
2023-05-17T18:37:04.722Z,179.98
2023-05-17T18:39:31.537Z,263.58
2023-05-17T18:41:58.153Z,178.38
2023-05-17T18:44:25.025Z,195.75
2023-05-17T18:46:52.098Z,190.00
2023-05-17T18:49:18.822Z,180.20
2023-05-17T18:51:45.799Z,179.15
2023-05-17T18:54:12.539Z,166.45
2023-05-17T18:56:39.372Z,177.65
2023-05-17T18:59:06.091Z,198.77
2023-05-17T19:01:32.742Z,174.27
2023-05-17T19:03:59.477Z,256.52
2023-05-17T19:06:27.695Z,175.85
2023-05-17T19:08:58.041Z,210.05
2023-05-17T19:11:24.797Z,184.05
2023-05-17T19:13:51.500Z,166.00
2023-05-17T19:16:18.589Z,169.00
2023-05-17T19:18:45.369Z,175.35
2023-05-17T19:21:12.477Z,179.18
2023-05-17T19:23:39.396Z,176.82
2023-05-17T19:26:06.280Z,168.02
2023-05-17T19:28:35.550Z,196.30
2023-05-17T19:31:05.320Z,166.15
2023-05-17T19:33:34.009Z,177.10
2023-05-17T19:36:01.159Z,172.20
2023-05-17T19:38:28.113Z,168.07
2023-05-17T19:40:54.921Z,304.10
2023-05-17T19:43:21.594Z,152.70
2023-05-17T19:45:48.238Z,234.70
2023-05-17T19:48:14.927Z,173.00
2023-05-17T19:50:41.598Z,141.80
2023-05-17T19:53:08.229Z,177.77
2023-05-17T19:55:36.348Z,213.15
2023-05-17T19:58:03.538Z,168.27
2023-05-17T20:00:32.598Z,135.45
2023-05-17T20:02:59.540Z,127.80
2023-05-17T20:05:27.171Z,206.18
2023-05-17T20:07:53.912Z,230.18
2023-05-17T20:10:21.054Z,197.18
2023-05-17T20:12:48.236Z,257.65
2023-05-17T20:15:14.823Z,177.70
2023-05-17T20:17:41.992Z,167.75
2023-05-17T20:20:09.398Z,185.18
2023-05-17T20:22:37.316Z,141.75
2023-05-17T20:25:04.352Z,184.20
2023-05-17T20:27:31.175Z,146.65
2023-05-17T20:29:58.041Z,142.77
2023-05-17T20:32:24.769Z,146.73
2023-05-17T20:34:51.391Z,182.23
2023-05-17T20:37:18.208Z,121.93
2023-05-17T20:39:45.187Z,148.02
2023-05-17T20:42:18.176Z,125.80
2023-05-17T20:44:45.213Z,189.10
2023-05-17T20:47:11.903Z,127.38
2023-05-17T20:49:38.486Z,137.43
2023-05-17T20:52:05.458Z,133.65
2023-05-17T20:54:32.566Z,144.70
2023-05-17T20:56:59.871Z,127.30
2023-05-17T20:59:26.859Z,185.63
2023-05-17T21:01:53.640Z,133.73
2023-05-17T21:04:20.725Z,122.65
2023-05-17T21:06:47.476Z,125.00
2023-05-17T21:09:14.535Z,166.30
2023-05-17T21:11:41.163Z,122.50
2023-05-17T21:14:08.134Z,255.50
2023-05-17T21:16:35.507Z,126.90
2023-05-17T21:19:02.350Z,245.65
2023-05-17T21:21:28.910Z,121.95
2023-05-17T21:23:55.648Z,134.13
2023-05-17T21:26:23.069Z,113.25
2023-05-17T21:28:49.741Z,143.32
2023-05-17T21:31:16.634Z,159.25
2023-05-17T21:33:43.354Z,192.98
2023-05-17T21:36:09.982Z,182.32
2023-05-17T21:38:36.567Z,114.32
2023-05-17T21:41:03.440Z,212.75
2023-05-17T21:43:30.058Z,121.72
2023-05-17T21:45:56.816Z,223.20
2023-05-17T21:48:23.405Z,114.55
2023-05-17T21:50:50.003Z,115.13
2023-05-17T21:53:16.582Z,111.15
2023-05-17T21:58:12.894Z,107.68
2023-05-17T22:00:39.692Z,240.75
2023-05-17T22:03:06.660Z,111.93
2023-05-17T22:05:33.319Z,116.75
2023-05-17T22:07:59.916Z,104.00
2023-05-17T22:10:26.469Z,108.57
2023-05-17T22:12:54.148Z,140.45
2023-05-17T22:15:21.899Z,167.65
2023-05-17T22:17:52.881Z,113.68
2023-05-17T22:22:50.759Z,102.88
2023-05-17T22:25:17.862Z,159.60
2023-05-17T22:27:45.367Z,104.18
2023-05-17T22:30:12.281Z,150.27
2023-05-17T22:32:40.077Z,199.10
2023-05-17T22:35:07.224Z,143.98
2023-05-17T22:37:33.900Z,128.95
2023-05-17T22:40:00.855Z,100.07
2023-05-17T22:42:28.031Z,186.75
2023-05-17T22:44:54.737Z,161.50
2023-05-17T22:47:23.224Z,106.38
2023-05-17T22:49:52.571Z,114.13
2023-05-17T22:52:19.738Z,165.23
2023-05-17T22:54:46.314Z,108.22
2023-05-17T22:57:12.960Z,106.07
2023-05-17T22:59:39.718Z,133.02
2023-05-17T23:02:06.422Z,106.10
2023-05-17T23:04:33.289Z,108.38
2023-05-17T23:07:03.505Z,164.50
2023-05-17T23:09:30.318Z,97.72
2023-05-17T23:11:59.372Z,186.45
2023-05-17T23:14:25.956Z,101.93
2023-05-17T23:16:52.627Z,97.28
2023-05-17T23:19:20.800Z,118.97
2023-05-17T23:21:49.366Z,118.82
2023-05-17T23:24:15.995Z,109.65
2023-05-17T23:26:42.598Z,100.50
2023-05-17T23:29:10.621Z,98.32
2023-05-17T23:31:37.609Z,143.88
2023-05-17T23:34:06.679Z,102.28
2023-05-17T23:36:33.280Z,184.98
2023-05-17T23:38:59.820Z,99.45
2023-05-17T23:41:26.426Z,122.40
2023-05-17T23:43:53.044Z,90.03
2023-05-17T23:46:20.050Z,108.53
2023-05-17T23:48:52.786Z,99.25
2023-05-17T23:51:20.043Z,103.68
2023-05-17T23:53:48.672Z,208.25
2023-05-17T23:56:17.131Z,97.53
2023-05-17T23:58:44.458Z,117.13
